createdAt,value
2017-09-28T00:00:21.385Z,0
2017-09-28T00:01:01.837Z,0
2017-09-28T00:01:42.292Z,0
2017-09-28T00:02:22.746Z,0
2017-09-28T00:03:03.198Z,0
2017-09-28T00:03:43.654Z,0
2017-09-28T00:04:24.103Z,0
2017-09-28T00:05:04.559Z,0
2017-09-28T00:05:45.024Z,0
2017-09-28T00:06:25.479Z,0
2017-09-28T00:07:05.936Z,0
2017-09-28T00:07:46.389Z,0
2017-09-28T00:08:26.846Z,0
2017-09-28T00:09:07.284Z,0
2017-09-28T00:09:47.744Z,0
2017-09-28T00:10:28.202Z,0
2017-09-28T00:11:08.690Z,0
2017-09-28T00:11:49.154Z,0
2017-09-28T00:12:29.607Z,0
2017-09-28T00:13:10.077Z,0
2017-09-28T00:13:50.532Z,0
2017-09-28T00:14:30.983Z,0
2017-09-28T00:15:11.437Z,0
2017-09-28T00:15:51.885Z,0
2017-09-28T00:16:32.346Z,0
2017-09-28T00:17:12.805Z,0
2017-09-28T00:17:53.246Z,0
2017-09-28T00:18:33.687Z,0
2017-09-28T00:19:14.139Z,0
2017-09-28T00:19:54.593Z,0
2017-09-28T00:20:35.046Z,0
2017-09-28T00:21:15.528Z,0
2017-09-28T00:21:55.954Z,0
2017-09-28T00:22:36.400Z,0
2017-09-28T00:23:16.856Z,0
2017-09-28T00:23:57.308Z,0
2017-09-28T00:24:37.766Z,0
2017-09-28T00:25:18.225Z,0
2017-09-28T00:25:58.680Z,0
2017-09-28T00:26:39.144Z,0
2017-09-28T00:27:19.602Z,0
2017-09-28T00:28:00.055Z,0
2017-09-28T00:28:40.506Z,0
2017-09-28T00:29:20.949Z,0
2017-09-28T00:30:01.395Z,0
2017-09-28T00:30:41.846Z,0
2017-09-28T00:31:22.300Z,0
2017-09-28T00:32:02.753Z,0
2017-09-28T00:32:43.210Z,0
2017-09-28T00:33:23.670Z,0
2017-09-28T00:34:04.121Z,0
2017-09-28T00:34:44.578Z,0
2017-09-28T00:35:25.040Z,0
2017-09-28T00:36:05.499Z,0
2017-09-28T00:36:45.956Z,0
2017-09-28T00:37:26.413Z,0
2017-09-28T00:38:06.885Z,0
2017-09-28T00:38:47.322Z,0
2017-09-28T00:39:27.772Z,0
2017-09-28T00:40:08.225Z,0
2017-09-28T00:40:48.688Z,0
2017-09-28T00:41:29.141Z,0
2017-09-28T00:42:09.584Z,0
2017-09-28T00:42:50.034Z,0
2017-09-28T00:43:30.478Z,0
2017-09-28T00:44:10.938Z,0
2017-09-28T00:44:51.387Z,0
2017-09-28T00:45:31.836Z,0
2017-09-28T00:46:12.292Z,0
2017-09-28T00:46:52.749Z,0
2017-09-28T00:47:33.195Z,0
2017-09-28T00:48:13.645Z,0
2017-09-28T00:48:54.131Z,0
2017-09-28T00:49:34.557Z,0
2017-09-28T00:50:15.015Z,0
2017-09-28T00:50:55.468Z,0
2017-09-28T00:51:35.923Z,0
2017-09-28T00:52:16.384Z,0
2017-09-28T00:52:56.836Z,0
2017-09-28T00:53:37.292Z,0
2017-09-28T00:54:17.748Z,0
2017-09-28T00:54:58.194Z,0
2017-09-28T00:55:38.644Z,0
2017-09-28T00:56:19.096Z,0
2017-09-28T00:56:59.552Z,0
2017-09-28T00:57:40.005Z,0
2017-09-28T00:58:20.456Z,0
2017-09-28T00:59:00.910Z,0
2017-09-28T00:59:41.362Z,0
2017-09-28T01:00:21.812Z,0
2017-09-28T01:01:02.260Z,0
2017-09-28T01:01:42.708Z,0
2017-09-28T01:02:23.165Z,0
2017-09-28T01:03:03.627Z,0
2017-09-28T01:03:44.094Z,0
2017-09-28T01:04:24.546Z,0
2017-09-28T01:05:04.986Z,0
2017-09-28T01:05:45.436Z,0
2017-09-28T01:06:25.894Z,0
2017-09-28T01:07:06.344Z,0
2017-09-28T01:07:46.799Z,0
2017-09-28T01:08:27.263Z,0
2017-09-28T01:09:07.714Z,0
2017-09-28T01:09:48.166Z,0
2017-09-28T01:10:28.629Z,0
2017-09-28T01:11:09.080Z,0
2017-09-28T01:11:49.535Z,0
2017-09-28T01:12:29.988Z,0
2017-09-28T01:13:10.444Z,0
2017-09-28T01:13:50.902Z,0
2017-09-28T01:14:31.374Z,0
2017-09-28T01:15:11.828Z,0
2017-09-28T01:15:52.281Z,0
2017-09-28T01:16:32.737Z,0
2017-09-28T01:17:13.190Z,0
2017-09-28T01:17:53.650Z,0
2017-09-28T01:18:34.102Z,0
2017-09-28T01:19:14.557Z,0
2017-09-28T01:19:55.013Z,0
2017-09-28T01:20:35.478Z,0
2017-09-28T01:21:15.937Z,0
2017-09-28T01:21:56.387Z,0
2017-09-28T01:22:36.836Z,0
2017-09-28T01:23:17.308Z,0
2017-09-28T01:23:57.735Z,0
2017-09-28T01:24:38.192Z,0
2017-09-28T01:25:18.636Z,0
2017-09-28T01:25:59.094Z,0
2017-09-28T01:26:39.545Z,0
2017-09-28T01:27:19.996Z,0
2017-09-28T01:28:00.447Z,0
2017-09-28T01:28:40.921Z,0
2017-09-28T01:29:21.376Z,0
2017-09-28T01:30:01.837Z,0
2017-09-28T01:30:42.295Z,0
2017-09-28T01:31:22.743Z,0
2017-09-28T01:32:03.198Z,0
2017-09-28T01:32:43.651Z,0
2017-09-28T01:33:24.109Z,0
2017-09-28T01:34:04.572Z,0
2017-09-28T01:34:45.037Z,0
2017-09-28T01:35:25.494Z,0
2017-09-28T01:36:05.958Z,0
2017-09-28T01:36:46.410Z,0
2017-09-28T01:37:26.871Z,0
2017-09-28T01:38:07.316Z,0
2017-09-28T01:38:47.776Z,0
2017-09-28T01:39:28.238Z,0
2017-09-28T01:40:08.691Z,0
2017-09-28T01:40:49.148Z,0
2017-09-28T01:41:29.598Z,0
2017-09-28T01:42:10.045Z,0
2017-09-28T01:42:50.489Z,0
2017-09-28T01:43:30.941Z,0
2017-09-28T01:44:11.393Z,0
2017-09-28T01:44:51.849Z,0
2017-09-28T01:45:32.301Z,0
2017-09-28T01:46:12.763Z,0
2017-09-28T01:46:53.218Z,0
2017-09-28T01:47:33.667Z,0
2017-09-28T01:48:14.122Z,0
2017-09-28T01:48:54.579Z,0
2017-09-28T01:49:35.039Z,0
2017-09-28T01:50:15.493Z,0
2017-09-28T01:50:55.943Z,0
2017-09-28T01:51:36.402Z,0
2017-09-28T01:52:16.853Z,0
2017-09-28T01:52:57.310Z,0
2017-09-28T01:53:37.758Z,0
2017-09-28T01:54:18.219Z,0
2017-09-28T01:54:58.680Z,0
2017-09-28T01:55:39.136Z,0
2017-09-28T01:56:19.596Z,0
2017-09-28T01:57:00.056Z,0
2017-09-28T01:57:40.509Z,0
2017-09-28T01:58:20.970Z,0
2017-09-28T01:59:01.428Z,0
2017-09-28T01:59:41.891Z,0
2017-09-28T02:00:22.353Z,0
2017-09-28T02:01:02.808Z,0
2017-09-28T02:01:43.267Z,0
2017-09-28T02:02:23.718Z,0
2017-09-28T02:03:04.177Z,0
2017-09-28T02:03:44.652Z,0
2017-09-28T02:04:25.105Z,0
2017-09-28T02:05:05.564Z,0
2017-09-28T02:05:46.021Z,0
2017-09-28T02:06:26.471Z,0
2017-09-28T02:07:06.926Z,0
2017-09-28T02:07:47.383Z,0
2017-09-28T02:08:27.831Z,0
2017-09-28T02:09:08.287Z,0
2017-09-28T02:09:48.734Z,0
2017-09-28T02:10:29.195Z,0
2017-09-28T02:11:09.653Z,0
2017-09-28T02:11:50.101Z,0
2017-09-28T02:12:30.562Z,0
2017-09-28T02:13:11.040Z,0
2017-09-28T02:13:51.470Z,0
2017-09-28T02:14:31.917Z,0
2017-09-28T02:15:12.367Z,0
2017-09-28T02:15:52.825Z,0
2017-09-28T02:16:33.279Z,0
2017-09-28T02:17:13.739Z,0
2017-09-28T02:17:54.194Z,0
2017-09-28T02:18:34.648Z,0
2017-09-28T02:19:15.101Z,0
2017-09-28T02:19:55.553Z,0
2017-09-28T02:20:36.015Z,0
2017-09-28T02:21:16.466Z,0
2017-09-28T02:21:56.920Z,0
2017-09-28T02:22:37.408Z,0
2017-09-28T02:23:17.821Z,0
2017-09-28T02:23:58.818Z,0
2017-09-28T02:24:39.269Z,0
2017-09-28T02:25:19.717Z,0
2017-09-28T02:26:00.175Z,0
2017-09-28T02:26:40.636Z,0
2017-09-28T02:27:21.089Z,0
2017-09-28T02:28:01.546Z,0
2017-09-28T02:28:41.997Z,0
2017-09-28T02:29:22.451Z,0
2017-09-28T02:30:02.909Z,0
2017-09-28T02:30:43.370Z,0
2017-09-28T02:31:23.822Z,0
2017-09-28T02:32:04.283Z,0
2017-09-28T02:32:44.737Z,0
2017-09-28T02:33:25.193Z,0
2017-09-28T02:35:37.980Z,0
2017-09-28T02:36:18.462Z,0
2017-09-28T02:36:58.895Z,0
2017-09-28T02:37:39.353Z,0
2017-09-28T02:38:19.809Z,0
2017-09-28T02:39:00.265Z,0
2017-09-28T02:39:40.704Z,0
2017-09-28T02:40:21.163Z,0
2017-09-28T02:41:01.617Z,0
2017-09-28T02:41:42.074Z,0
2017-09-28T02:42:22.529Z,0
2017-09-28T02:43:02.960Z,0
2017-09-28T02:43:43.399Z,0
2017-09-28T02:44:23.859Z,0
2017-09-28T02:45:04.310Z,0
2017-09-28T02:45:44.769Z,0
2017-09-28T02:46:25.223Z,0
2017-09-28T02:47:05.659Z,0
2017-09-28T02:47:46.116Z,0
2017-09-28T02:48:26.583Z,0
2017-09-28T02:49:07.009Z,0
2017-09-28T02:49:47.458Z,0
2017-09-28T02:50:27.910Z,0
2017-09-28T02:51:08.383Z,0
2017-09-28T02:51:48.840Z,0
2017-09-28T02:52:29.294Z,0
2017-09-28T02:53:09.751Z,0
2017-09-28T02:53:50.203Z,0
2017-09-28T02:54:30.656Z,0
2017-09-28T02:55:11.112Z,0
2017-09-28T02:55:51.572Z,0
2017-09-28T02:56:32.031Z,0
2017-09-28T02:57:12.499Z,0
2017-09-28T02:57:52.939Z,0
2017-09-28T02:58:33.395Z,0
2017-09-28T02:59:13.842Z,0
2017-09-28T02:59:54.285Z,0
2017-09-28T03:00:34.730Z,0
2017-09-28T03:01:15.210Z,0
2017-09-28T03:01:55.641Z,0
2017-09-28T03:02:36.086Z,0
2017-09-28T03:03:16.547Z,0
2017-09-28T03:03:56.999Z,0
2017-09-28T03:04:37.454Z,0
2017-09-28T03:05:17.918Z,0
2017-09-28T03:05:58.364Z,0
2017-09-28T03:06:38.816Z,0
2017-09-28T03:07:19.270Z,0
2017-09-28T03:07:59.726Z,0
2017-09-28T03:08:40.175Z,0
2017-09-28T03:09:20.636Z,0
2017-09-28T03:10:01.090Z,0
2017-09-28T03:10:41.551Z,0
2017-09-28T03:11:22.002Z,0
2017-09-28T03:12:02.460Z,0
2017-09-28T03:12:42.918Z,0
2017-09-28T03:13:23.377Z,0
2017-09-28T03:14:03.821Z,0
2017-09-28T03:14:44.274Z,0
2017-09-28T03:15:24.721Z,0
2017-09-28T03:16:05.175Z,0
2017-09-28T03:16:45.627Z,0
2017-09-28T03:17:26.117Z,0
2017-09-28T03:18:06.541Z,0
2017-09-28T03:18:46.997Z,0
2017-09-28T03:19:27.458Z,0
2017-09-28T03:20:07.909Z,0
2017-09-28T03:20:48.358Z,0
2017-09-28T03:21:28.813Z,0
2017-09-28T03:22:09.261Z,0
2017-09-28T03:22:49.719Z,0
2017-09-28T03:23:30.176Z,0
2017-09-28T03:24:10.626Z,0
2017-09-28T03:24:51.071Z,0
2017-09-28T03:25:31.524Z,0
2017-09-28T03:26:11.976Z,0
2017-09-28T03:26:52.431Z,0
2017-09-28T03:27:32.880Z,0
2017-09-28T03:28:13.338Z,0
2017-09-28T03:28:53.796Z,0
2017-09-28T03:29:34.240Z,0
2017-09-28T03:30:14.696Z,0
2017-09-28T03:30:55.146Z,0
2017-09-28T03:31:35.599Z,0
2017-09-28T03:32:16.054Z,0
2017-09-28T03:32:56.509Z,0
2017-09-28T03:33:36.959Z,0
2017-09-28T03:34:17.434Z,0
2017-09-28T03:34:57.877Z,0
2017-09-28T03:35:38.325Z,0
2017-09-28T03:36:18.782Z,0
2017-09-28T03:36:59.237Z,0
2017-09-28T03:37:39.691Z,0
2017-09-28T03:38:20.149Z,0
2017-09-28T03:39:00.606Z,0
2017-09-28T03:39:41.055Z,0
2017-09-28T03:40:21.506Z,0
2017-09-28T03:41:01.947Z,0
2017-09-28T03:41:42.393Z,0
2017-09-28T03:42:22.851Z,0
2017-09-28T03:43:03.309Z,0
2017-09-28T03:43:43.768Z,0
2017-09-28T03:44:24.223Z,0
2017-09-28T03:45:04.689Z,0
2017-09-28T03:45:45.153Z,0
2017-09-28T03:46:25.599Z,0
2017-09-28T03:47:06.054Z,4
2017-09-28T03:47:46.505Z,4
2017-09-28T03:48:26.959Z,4
2017-09-28T03:49:07.412Z,4
2017-09-28T03:49:47.865Z,4
2017-09-28T03:50:28.311Z,0
2017-09-28T03:51:08.756Z,0
2017-09-28T03:53:36.608Z,0
2017-09-28T03:54:17.061Z,0
2017-09-28T03:54:57.506Z,0
2017-09-28T03:55:37.961Z,0
2017-09-28T03:56:18.413Z,0
2017-09-28T03:56:58.864Z,0
2017-09-28T03:57:39.314Z,0
2017-09-28T03:58:19.772Z,0
2017-09-28T03:59:00.228Z,0
2017-09-28T03:59:40.681Z,0
2017-09-28T04:00:21.137Z,0
2017-09-28T04:01:01.589Z,0
2017-09-28T04:01:42.043Z,0
2017-09-28T04:02:22.506Z,0
2017-09-28T04:03:02.946Z,0
2017-09-28T04:03:43.394Z,0
2017-09-28T04:04:23.868Z,0
2017-09-28T04:05:04.290Z,0
2017-09-28T04:05:44.747Z,0
2017-09-28T04:06:25.201Z,0
2017-09-28T04:07:05.677Z,0
2017-09-28T04:07:46.125Z,0
2017-09-28T04:08:26.586Z,0
2017-09-28T04:09:07.042Z,0
2017-09-28T04:09:47.490Z,0
2017-09-28T04:10:27.950Z,0
2017-09-28T04:11:08.409Z,0
2017-09-28T04:11:48.850Z,0
2017-09-28T04:12:29.319Z,0
2017-09-28T04:13:09.773Z,0
2017-09-28T04:13:50.212Z,0
2017-09-28T04:14:30.662Z,0
2017-09-28T04:15:11.118Z,0
2017-09-28T04:15:51.562Z,0
2017-09-28T04:16:32.020Z,0
2017-09-28T04:17:12.510Z,0
2017-09-28T04:17:52.965Z,0
2017-09-28T04:18:33.425Z,0
2017-09-28T04:19:13.864Z,0
2017-09-28T04:19:54.320Z,0
2017-09-28T04:20:34.741Z,0
2017-09-28T04:21:15.203Z,0
2017-09-28T04:21:55.666Z,0
2017-09-28T04:22:36.071Z,0
2017-09-28T04:23:16.521Z,0
2017-09-28T04:23:56.960Z,0
2017-09-28T04:24:37.419Z,0
2017-09-28T04:26:50.085Z,0
2017-09-28T04:27:30.556Z,0
2017-09-28T04:28:11.003Z,0
2017-09-28T04:28:51.453Z,0
2017-09-28T04:29:31.910Z,0
2017-09-28T04:30:12.362Z,0
2017-09-28T04:30:52.815Z,0
2017-09-28T04:31:33.275Z,0
2017-09-28T04:32:13.723Z,0
2017-09-28T04:32:54.174Z,0
2017-09-28T04:33:34.624Z,0
2017-09-28T04:34:15.078Z,0
2017-09-28T04:34:55.530Z,0
2017-09-28T04:35:35.985Z,0
2017-09-28T04:36:16.414Z,0
2017-09-28T04:36:56.863Z,0
2017-09-28T04:37:37.332Z,0
2017-09-28T04:38:17.782Z,0
2017-09-28T04:38:58.238Z,0
2017-09-28T04:39:38.695Z,0
2017-09-28T04:40:19.150Z,0
2017-09-28T04:40:59.603Z,0
2017-09-28T04:41:40.052Z,0
2017-09-28T04:42:20.500Z,0
2017-09-28T04:43:00.959Z,0
2017-09-28T04:43:41.414Z,0
2017-09-28T04:44:21.868Z,0
2017-09-28T04:45:02.309Z,0
2017-09-28T04:45:42.761Z,0
2017-09-28T04:46:23.218Z,0
2017-09-28T04:47:03.667Z,0
2017-09-28T04:47:44.125Z,0
2017-09-28T04:48:24.583Z,0
2017-09-28T04:49:05.035Z,0
2017-09-28T04:49:45.487Z,0
2017-09-28T04:50:25.947Z,0
2017-09-28T04:51:06.404Z,0
2017-09-28T04:51:47.057Z,0
2017-09-28T04:52:27.514Z,0
2017-09-28T04:53:07.966Z,0
2017-09-28T04:53:48.414Z,0
2017-09-28T04:54:28.863Z,0
2017-09-28T04:55:09.317Z,0
2017-09-28T04:55:49.775Z,0
2017-09-28T04:56:30.238Z,0
2017-09-28T04:57:10.705Z,0
2017-09-28T04:57:51.152Z,0
2017-09-28T04:58:31.601Z,0
2017-09-28T04:59:12.060Z,0
2017-09-28T04:59:52.482Z,0
2017-09-28T05:00:32.968Z,0
2017-09-28T05:01:13.383Z,0
2017-09-28T05:01:53.843Z,0
2017-09-28T05:02:34.302Z,0
2017-09-28T05:03:14.758Z,0
2017-09-28T05:03:55.210Z,0
2017-09-28T05:04:35.664Z,0
2017-09-28T05:05:16.122Z,4
2017-09-28T05:05:56.573Z,4
2017-09-28T05:06:37.016Z,4
2017-09-28T05:07:17.473Z,4
2017-09-28T05:07:57.928Z,0
2017-09-28T05:08:38.380Z,0
2017-09-28T05:09:18.831Z,4
2017-09-28T05:09:59.290Z,4
2017-09-28T05:10:39.753Z,4
2017-09-28T05:11:20.211Z,4
2017-09-28T05:12:00.657Z,4
2017-09-28T05:12:41.116Z,4
2017-09-28T05:13:21.567Z,8
2017-09-28T05:14:02.252Z,4
2017-09-28T05:14:42.745Z,8
2017-09-28T05:15:23.169Z,4
2017-09-28T05:17:35.939Z,8
2017-09-28T05:18:16.385Z,12
2017-09-28T05:18:56.833Z,8
2017-09-28T05:19:37.292Z,12
2017-09-28T05:20:17.738Z,12
2017-09-28T05:20:58.180Z,12
2017-09-28T05:21:38.624Z,16
2017-09-28T05:22:19.081Z,16
2017-09-28T05:22:59.547Z,16
2017-09-28T05:23:39.977Z,20
2017-09-28T05:24:20.434Z,20
2017-09-28T05:25:00.887Z,20
2017-09-28T05:25:41.349Z,24
2017-09-28T05:26:21.804Z,24
2017-09-28T05:27:02.253Z,28
2017-09-28T05:27:42.705Z,28
2017-09-28T05:28:23.154Z,32
2017-09-28T05:29:03.610Z,32
2017-09-28T05:29:44.052Z,36
2017-09-28T05:30:24.507Z,36
2017-09-28T05:31:04.959Z,36
2017-09-28T05:31:45.414Z,40
2017-09-28T05:32:25.864Z,40
2017-09-28T05:33:06.313Z,40
2017-09-28T05:33:46.774Z,44
2017-09-28T05:34:27.225Z,44
2017-09-28T05:35:07.709Z,48
2017-09-28T05:35:48.142Z,48
2017-09-28T05:36:28.586Z,44
2017-09-28T05:37:09.036Z,48
2017-09-28T05:37:49.495Z,48
2017-09-28T05:38:29.955Z,52
2017-09-28T05:39:10.614Z,48
2017-09-28T05:39:51.104Z,52
2017-09-28T05:40:31.558Z,52
2017-09-28T05:41:12.005Z,52
2017-09-28T05:41:52.462Z,52
2017-09-28T05:42:32.918Z,56
2017-09-28T05:43:13.369Z,56
2017-09-28T05:43:53.817Z,56
2017-09-28T05:44:34.272Z,56
2017-09-28T05:45:14.725Z,56
2017-09-28T05:45:55.181Z,60
2017-09-28T05:46:35.647Z,60
2017-09-28T05:49:03.691Z,64
2017-09-28T05:51:16.337Z,64
2017-09-28T05:51:56.789Z,64
2017-09-28T05:52:37.245Z,64
2017-09-28T05:53:17.700Z,64
2017-09-28T05:53:58.152Z,64
2017-09-28T05:54:38.610Z,64
2017-09-28T05:55:19.071Z,68
2017-09-28T05:55:59.514Z,68
2017-09-28T05:58:27.919Z,72
2017-09-28T05:59:08.375Z,76
2017-09-28T05:59:48.820Z,76
2017-09-28T06:00:29.274Z,76
2017-09-28T06:01:09.737Z,80
2017-09-28T06:01:50.183Z,80
2017-09-28T06:02:30.636Z,80
2017-09-28T06:03:11.097Z,84
2017-09-28T06:03:51.549Z,84
2017-09-28T06:04:32.005Z,88
2017-09-28T06:05:12.464Z,92
2017-09-28T06:05:52.928Z,96
2017-09-28T06:06:33.366Z,100
2017-09-28T06:07:13.821Z,104
2017-09-28T06:07:54.291Z,108
2017-09-28T06:08:34.726Z,112
2017-09-28T06:09:15.187Z,116
2017-09-28T06:09:55.636Z,124
2017-09-28T06:10:36.263Z,128
2017-09-28T06:11:16.682Z,136
2017-09-28T06:11:57.134Z,144
2017-09-28T06:12:37.583Z,152
2017-09-28T06:13:18.084Z,156
2017-09-28T06:13:58.530Z,164
2017-09-28T06:16:26.353Z,192
2017-09-28T06:17:06.812Z,196
2017-09-28T06:17:47.290Z,204
2017-09-28T06:18:27.741Z,208
2017-09-28T06:19:08.196Z,216
2017-09-28T06:19:48.653Z,220
2017-09-28T06:20:29.104Z,228
2017-09-28T06:21:09.557Z,236
2017-09-28T06:21:50.012Z,236
2017-09-28T06:22:30.465Z,236
2017-09-28T06:23:10.917Z,236
2017-09-28T06:23:51.370Z,236
2017-09-28T06:24:31.823Z,232
2017-09-28T06:25:12.280Z,232
2017-09-28T06:25:52.736Z,232
2017-09-28T06:26:33.179Z,224
2017-09-28T06:27:13.639Z,224
2017-09-28T06:27:54.091Z,220
2017-09-28T06:28:34.543Z,212
2017-09-28T06:29:14.983Z,208
2017-09-28T06:29:55.431Z,208
2017-09-28T06:30:35.881Z,200
2017-09-28T06:31:16.325Z,196
2017-09-28T06:31:56.762Z,192
2017-09-28T06:32:37.230Z,184
2017-09-28T06:33:17.674Z,180
2017-09-28T06:33:58.138Z,180
2017-09-28T06:34:38.582Z,172
2017-09-28T06:35:19.033Z,172
2017-09-28T06:35:59.478Z,172
2017-09-28T06:36:39.933Z,172
2017-09-28T06:37:20.499Z,168
2017-09-28T06:38:00.965Z,168
2017-09-28T06:38:41.439Z,168
2017-09-28T06:39:21.901Z,168
2017-09-28T06:40:02.358Z,172
2017-09-28T06:40:42.805Z,172
2017-09-28T06:41:23.246Z,172
2017-09-28T06:42:03.700Z,172
2017-09-28T06:42:44.148Z,176
2017-09-28T06:43:24.602Z,180
2017-09-28T06:44:05.055Z,180
2017-09-28T06:44:45.706Z,184
2017-09-28T06:45:26.152Z,188
2017-09-28T06:46:06.609Z,192
2017-09-28T06:46:47.857Z,196
2017-09-28T06:47:28.232Z,204
2017-09-28T06:48:08.597Z,208
2017-09-28T06:48:49.046Z,216
2017-09-28T06:49:29.500Z,220
2017-09-28T06:50:09.938Z,224
2017-09-28T06:50:50.394Z,232
2017-09-28T06:51:30.846Z,236
2017-09-28T06:52:11.303Z,244
2017-09-28T06:52:51.759Z,252
2017-09-28T06:53:32.214Z,256
2017-09-28T06:54:12.659Z,268
2017-09-28T06:54:53.110Z,272
2017-09-28T06:55:33.567Z,284
2017-09-28T06:56:14.026Z,292
2017-09-28T06:56:54.487Z,300
2017-09-28T06:57:34.937Z,312
2017-09-28T06:58:15.391Z,324
2017-09-28T06:58:55.842Z,332
2017-09-28T06:59:36.320Z,344
2017-09-28T07:00:16.796Z,356
2017-09-28T07:00:57.246Z,368
2017-09-28T07:01:37.703Z,376
2017-09-28T07:02:18.157Z,388
2017-09-28T07:02:58.644Z,404
2017-09-28T07:03:39.074Z,412
2017-09-28T07:04:19.528Z,428
2017-09-28T07:05:00.023Z,440
2017-09-28T07:05:40.435Z,444
2017-09-28T07:06:20.900Z,456
2017-09-28T07:07:01.355Z,464
2017-09-28T07:07:41.806Z,472
2017-09-28T07:08:22.258Z,476
2017-09-28T07:09:02.738Z,488
2017-09-28T07:09:43.195Z,500
2017-09-28T07:10:23.682Z,516
2017-09-28T07:11:04.091Z,540
2017-09-28T07:13:16.884Z,648
2017-09-28T07:13:57.343Z,692
2017-09-28T07:14:37.819Z,732
2017-09-28T07:15:18.283Z,756
2017-09-28T07:15:58.725Z,768
2017-09-28T07:16:39.282Z,780
2017-09-28T07:17:19.661Z,788
2017-09-28T07:18:00.090Z,788
2017-09-28T07:18:40.551Z,776
2017-09-28T07:19:20.998Z,776
2017-09-28T07:20:01.457Z,780
2017-09-28T07:20:41.912Z,796
2017-09-28T07:21:22.371Z,740
2017-09-28T07:22:02.822Z,700
2017-09-28T07:22:43.272Z,684
2017-09-28T07:23:23.730Z,676
2017-09-28T07:24:04.183Z,680
2017-09-28T07:24:44.636Z,676
2017-09-28T07:25:25.090Z,672
2017-09-28T07:26:05.542Z,668
2017-09-28T07:26:45.998Z,664
2017-09-28T07:27:26.456Z,668
2017-09-28T07:28:06.912Z,708
2017-09-28T07:28:47.365Z,672
2017-09-28T07:29:27.821Z,656
2017-09-28T07:30:08.272Z,652
2017-09-28T07:30:48.729Z,664
2017-09-28T07:31:29.177Z,672
2017-09-28T07:32:09.634Z,676
2017-09-28T07:32:50.094Z,680
2017-09-28T07:33:30.544Z,684
2017-09-28T07:34:11.003Z,688
2017-09-28T07:34:51.505Z,700
2017-09-28T07:35:31.952Z,716
2017-09-28T07:36:12.409Z,736
2017-09-28T07:36:52.861Z,752
2017-09-28T07:37:33.316Z,756
2017-09-28T07:38:13.773Z,752
2017-09-28T07:38:54.230Z,752
2017-09-28T07:39:34.688Z,748
2017-09-28T07:40:15.137Z,744
2017-09-28T07:40:55.592Z,736
2017-09-28T07:41:36.053Z,732
2017-09-28T07:42:16.507Z,728
2017-09-28T07:42:56.956Z,728
2017-09-28T07:43:37.407Z,736
2017-09-28T07:44:17.862Z,736
2017-09-28T07:44:58.322Z,752
2017-09-28T07:45:38.772Z,748
2017-09-28T07:46:19.200Z,776
2017-09-28T07:46:59.656Z,808
2017-09-28T07:47:40.106Z,828
2017-09-28T07:48:20.550Z,752
2017-09-28T07:49:01.004Z,712
2017-09-28T07:49:41.459Z,740
2017-09-28T07:50:21.907Z,708
2017-09-28T07:51:02.362Z,708
2017-09-28T07:51:42.806Z,708
2017-09-28T07:52:23.259Z,704
2017-09-28T07:53:03.711Z,732
2017-09-28T07:53:44.161Z,740
2017-09-28T07:54:24.610Z,740
2017-09-28T07:55:05.070Z,692
2017-09-28T07:55:45.526Z,696
2017-09-28T07:56:25.975Z,672
2017-09-28T07:57:06.422Z,656
2017-09-28T07:57:46.881Z,648
2017-09-28T07:58:27.334Z,632
2017-09-28T07:59:07.786Z,616
2017-09-28T07:59:48.239Z,596
2017-09-28T08:00:28.682Z,580
2017-09-28T08:01:09.143Z,572
2017-09-28T08:01:49.604Z,576
2017-09-28T08:02:30.059Z,596
2017-09-28T08:03:10.518Z,600
2017-09-28T08:03:50.969Z,592
2017-09-28T08:04:31.429Z,608
2017-09-28T08:05:11.875Z,612
2017-09-28T08:05:52.338Z,624
2017-09-28T08:06:32.793Z,632
2017-09-28T08:07:13.238Z,636
2017-09-28T08:07:53.703Z,640
2017-09-28T08:08:34.140Z,648
2017-09-28T08:09:14.588Z,652
2017-09-28T08:09:55.043Z,660
2017-09-28T08:10:35.497Z,676
2017-09-28T08:11:15.950Z,708
2017-09-28T08:11:56.402Z,756
2017-09-28T08:12:36.850Z,824
2017-09-28T08:13:17.314Z,848
2017-09-28T08:13:57.773Z,904
2017-09-28T08:14:38.260Z,988
2017-09-28T08:15:18.698Z,1208
2017-09-28T08:15:59.133Z,1480
2017-09-28T08:16:39.584Z,1628
2017-09-28T08:17:20.040Z,1624
2017-09-28T08:18:00.487Z,2012
2017-09-28T08:18:40.938Z,1972
2017-09-28T08:19:21.383Z,2176
2017-09-28T08:20:01.830Z,2316
2017-09-28T08:20:42.263Z,2380
2017-09-28T08:21:22.724Z,2768
2017-09-28T08:22:03.162Z,3248
2017-09-28T08:22:43.609Z,3336
2017-09-28T08:23:24.059Z,3280
2017-09-28T08:24:04.515Z,3300
2017-09-28T08:24:44.967Z,3556
2017-09-28T08:25:25.427Z,3516
2017-09-28T08:26:05.879Z,3424
2017-09-28T08:26:46.333Z,3532
2017-09-28T08:27:26.795Z,3228
2017-09-28T08:28:07.249Z,3184
2017-09-28T08:28:47.692Z,3044
2017-09-28T08:29:28.154Z,2984
2017-09-28T08:30:08.611Z,2992
2017-09-28T08:30:49.062Z,2868
2017-09-28T08:31:29.522Z,3028
2017-09-28T08:32:09.971Z,3276
2017-09-28T08:32:50.426Z,3560
2017-09-28T08:33:30.885Z,3672
2017-09-28T08:34:11.344Z,3396
2017-09-28T08:34:51.796Z,3252
2017-09-28T08:35:32.250Z,3012
2017-09-28T08:36:12.707Z,2228
2017-09-28T08:36:53.168Z,2440
2017-09-28T08:37:33.623Z,3372
2017-09-28T08:38:14.074Z,3508
2017-09-28T08:38:54.528Z,3796
2017-09-28T08:39:34.983Z,3996
2017-09-28T08:40:15.431Z,3724
2017-09-28T08:40:55.902Z,3468
2017-09-28T08:41:36.336Z,3080
2017-09-28T08:42:16.794Z,3544
2017-09-28T08:42:57.251Z,3792
2017-09-28T08:43:37.708Z,3772
2017-09-28T08:44:18.162Z,3724
2017-09-28T08:44:58.618Z,3900
2017-09-28T08:45:39.071Z,3352
2017-09-28T08:46:19.515Z,2600
2017-09-28T08:46:59.973Z,2244
2017-09-28T08:47:40.425Z,2360
2017-09-28T08:48:20.888Z,2268
2017-09-28T08:49:01.332Z,2416
2017-09-28T08:49:41.788Z,2556
2017-09-28T08:50:22.232Z,2608
2017-09-28T08:51:02.720Z,2572
2017-09-28T08:51:43.143Z,2424
2017-09-28T08:52:23.611Z,2348
2017-09-28T08:53:04.065Z,2048
2017-09-28T08:53:44.523Z,1916
2017-09-28T08:54:24.989Z,1800
2017-09-28T08:55:05.424Z,1772
2017-09-28T08:55:45.876Z,1624
2017-09-28T08:56:26.334Z,1492
2017-09-28T08:57:06.789Z,1392
2017-09-28T08:57:47.241Z,1436
2017-09-28T08:58:27.690Z,1240
2017-09-28T08:59:08.142Z,1140
2017-09-28T08:59:48.588Z,1084
2017-09-28T09:00:29.036Z,1032
2017-09-28T09:01:09.483Z,976
2017-09-28T09:01:49.941Z,948
2017-09-28T09:02:30.398Z,940
2017-09-28T09:03:10.849Z,924
2017-09-28T09:03:51.304Z,924
2017-09-28T09:04:31.754Z,940
2017-09-28T09:05:12.206Z,968
2017-09-28T09:05:52.648Z,1000
2017-09-28T09:06:33.105Z,1028
2017-09-28T09:07:13.561Z,1116
2017-09-28T09:07:54.014Z,1116
2017-09-28T09:08:34.491Z,1104
2017-09-28T09:09:14.929Z,1168
2017-09-28T09:09:55.382Z,1476
2017-09-28T09:10:35.836Z,1484
2017-09-28T09:11:16.294Z,1472
2017-09-28T09:11:56.750Z,1748
2017-09-28T09:12:37.209Z,1952
2017-09-28T09:13:17.657Z,1936
2017-09-28T09:13:58.113Z,1996
2017-09-28T09:14:38.565Z,1716
2017-09-28T09:15:19.021Z,1480
2017-09-28T09:15:59.472Z,1392
2017-09-28T09:16:39.929Z,1368
2017-09-28T09:17:20.380Z,1384
2017-09-28T09:18:00.834Z,1388
2017-09-28T09:18:41.269Z,1408
2017-09-28T09:19:21.716Z,1428
2017-09-28T09:20:02.175Z,1444
2017-09-28T09:20:42.629Z,1420
2017-09-28T09:21:23.081Z,1308
2017-09-28T09:22:03.534Z,1228
2017-09-28T09:22:43.993Z,1164
2017-09-28T09:23:24.805Z,1084
2017-09-28T09:24:05.262Z,1024
2017-09-28T09:24:45.780Z,968
2017-09-28T09:25:26.232Z,932
2017-09-28T09:26:06.698Z,932
2017-09-28T09:26:47.140Z,992
2017-09-28T09:27:27.593Z,988
2017-09-28T09:28:08.041Z,956
2017-09-28T09:28:48.487Z,900
2017-09-28T09:29:28.929Z,912
2017-09-28T09:30:09.391Z,956
2017-09-28T09:30:49.833Z,1080
2017-09-28T09:31:30.290Z,1280
2017-09-28T09:32:10.742Z,1336
2017-09-28T09:32:51.178Z,1888
2017-09-28T09:33:31.635Z,1584
2017-09-28T09:34:12.105Z,2352
2017-09-28T09:34:52.548Z,2600
2017-09-28T09:35:33.001Z,2600
2017-09-28T09:36:13.449Z,1872
2017-09-28T09:36:53.904Z,3612
2017-09-28T09:37:34.358Z,3024
2017-09-28T09:38:14.822Z,1840
2017-09-28T09:38:55.277Z,1536
2017-09-28T09:39:35.747Z,1412
2017-09-28T09:40:16.208Z,1604
2017-09-28T09:40:56.645Z,1908
2017-09-28T09:41:37.098Z,1396
2017-09-28T09:42:17.551Z,1436
2017-09-28T09:42:57.999Z,1368
2017-09-28T09:43:38.462Z,1608
2017-09-28T09:44:18.904Z,3208
2017-09-28T09:44:59.358Z,2084
2017-09-28T09:45:39.808Z,2600
2017-09-28T09:46:20.238Z,2320
2017-09-28T09:47:00.685Z,2168
2017-09-28T09:47:41.133Z,2516
2017-09-28T09:48:21.576Z,3924
2017-09-28T09:49:02.024Z,3916
2017-09-28T09:49:42.496Z,3052
2017-09-28T09:50:22.940Z,3296
2017-09-28T09:51:03.394Z,3044
2017-09-28T09:51:43.836Z,2432